Time;durP1;ratioP1;P1;durP2;ratioP2;P2;SDS_P1;SDS_P2;PMS_P1;PMS_P2;Temp;Humidity;BMP_temperature;BMP_pressure;BME280_temperature;BME280_humidity;BME280_pressure;Samples;Min_cycle;Max_cycle;Signal;HPM_P1;HPM_P2
2023/05/26 00:00:50;;;;;;;5.38;4.70;;;;;;;17.44;74.62;99323.41;5034500;28;20068;-86
2023/05/26 00:03:17;;;;;;;7.97;5.20;;;;;;;17.61;73.71;99319.16;5029415;28;20033;-86
2023/05/26 00:05:43;;;;;;;8.40;4.95;;;;;;;17.68;73.51;99304.28;5029073;28;20056;-86
2023/05/26 00:08:09;;;;;;;7.93;5.10;;;;;;;17.44;74.09;99305.63;5013956;28;20061;-86
2023/05/26 00:10:35;;;;;;;8.57;4.60;;;;;;;17.59;73.35;99318.72;5013884;28;20033;-86
2023/05/26 00:13:01;;;;;;;8.55;5.75;;;;;;;17.28;75.03;99319.97;5014487;28;20479;-85
2023/05/26 00:15:26;;;;;;;5.68;4.88;;;;;;;17.29;74.76;99330.88;5031661;28;20029;-86
2023/05/26 00:17:52;;;;;;;7.55;5.07;;;;;;;17.18;75.21;99330.75;5013434;28;20048;-85
2023/05/26 00:20:17;;;;;;;6.30;5.07;;;;;;;17.13;75.56;99333.91;5011788;28;20033;-86
2023/05/26 00:22:43;;;;;;;8.05;4.82;;;;;;;17.36;74.93;99330.16;5028843;28;20040;-85
2023/05/26 00:25:09;;;;;;;8.40;4.57;;;;;;;17.46;74.14;99326.66;5033493;28;20394;-85
2023/05/26 00:27:34;;;;;;;7.75;5.25;;;;;;;17.50;74.05;99321.88;5030747;28;20029;-86
2023/05/26 00:30:00;;;;;;;7.25;4.68;;;;;;;17.53;73.41;99323.91;5033558;28;20409;-86
2023/05/26 00:32:25;;;;;;;5.07;4.40;;;;;;;17.51;73.64;99323.50;5029905;28;20132;-86
2023/05/26 00:34:51;;;;;;;7.75;5.18;;;;;;;17.50;73.44;99321.88;5013565;28;20060;-86
2023/05/26 00:37:17;;;;;;;7.25;5.45;;;;;;;17.53;73.70;99320.25;5019942;28;20029;-86
2023/05/26 00:39:42;;;;;;;5.65;4.80;;;;;;;17.34;73.96;99318.41;5033415;28;20486;-86
2023/05/26 00:42:08;;;;;;;5.68;4.57;;;;;;;17.14;75.44;99329.91;5033285;28;20036;-85
2023/05/26 00:44:33;;;;;;;7.25;5.15;;;;;;;17.01;76.21;99331.31;5027056;28;20051;-86
2023/05/26 00:46:59;;;;;;;5.97;4.97;;;;;;;17.09;75.79;99324.56;5049807;28;20037;-85
2023/05/26 00:49:24;;;;;;;11.90;5.72;;;;;;;17.18;75.53;99329.94;5030717;28;20501;-86
2023/05/26 00:51:50;;;;;;;11.00;5.35;;;;;;;17.17;75.43;99329.13;5019872;28;20125;-86
2023/05/26 00:54:19;;;;;;;5.97;4.82;;;;;;;16.91;76.89;99322.28;5013355;28;20471;-86
2023/05/26 00:56:45;;;;;;;7.15;5.00;;;;;;;17.08;75.98;99318.13;5028133;28;20058;-85
2023/05/26 00:59:12;;;;;;;5.40;4.82;;;;;;;16.88;76.75;99330.72;5028645;28;20063;-86
2023/05/26 01:01:37;;;;;;;6.28;5.05;;;;;;;16.88;76.52;99317.38;5026615;28;20029;-85
2023/05/26 01:04:03;;;;;;;9.70;5.68;;;;;;;16.94;76.65;99334.81;5031673;28;20115;-85
2023/05/26 01:06:29;;;;;;;10.52;5.60;;;;;;;17.11;76.27;99333.47;5031983;28;20028;-85
2023/05/26 01:08:55;;;;;;;5.10;4.60;;;;;;;17.26;75.20;99324.00;5032438;28;20393;-86
2023/05/26 01:12:06;;;;;;;6.10;5.05;;;;;;;17.39;74.78;99324.56;5032067;28;20021;-86
2023/05/26 01:14:57;;;;;;;10.15;4.90;;;;;;;17.14;75.06;99321.44;5029980;28;20040;-85
2023/05/26 01:17:50;;;;;;;5.50;4.90;;;;;;;17.39;74.95;99329.41;5026815;28;20136;-86
2023/05/26 01:20:57;;;;;;;12.68;6.32;;;;;;;17.43;74.48;99320.94;5045164;28;20025;-86
2023/05/26 01:23:48;;;;;;;7.55;4.65;;;;;;;17.48;74.09;99326.28;5032824;28;20468;-85
2023/05/26 01:26:18;;;;;;;5.85;4.88;;;;;;;17.53;73.79;99335.22;5048019;28;20025;-86
2023/05/26 01:28:44;;;;;;;;;;;;;;;17.56;73.66;99342.13;5032020;28;20029;-85
2023/05/26 01:31:10;;;;;;;7.90;4.90;;;;;;;17.49;73.46;99328.69;5031742;28;20023;-85
2023/05/26 01:33:36;;;;;;;8.30;5.15;;;;;;;17.43;73.30;99333.09;5053871;28;20516;-85
2023/05/26 01:36:02;;;;;;;8.05;5.15;;;;;;;17.28;73.71;99331.28;5029840;28;20065;-86
2023/05/26 01:38:29;;;;;;;5.22;4.72;;;;;;;16.97;74.37;99323.56;5016746;28;20025;-85
2023/05/26 01:41:23;;;;;;;9.77;4.90;;;;;;;16.87;75.04;99332.72;5019310;28;20513;-86
2023/05/26 01:44:23;;;;;;;23.00;5.47;;;;;;;16.78;75.56;99327.34;5052963;28;20074;-85
2023/05/26 01:46:50;;;;;;;5.97;4.88;;;;;;;16.83;75.34;99334.69;5030800;28;20617;-86
2023/05/26 01:49:19;;;;;;;5.78;4.50;;;;;;;17.00;74.80;99335.34;5035777;28;20124;-85
2023/05/26 01:51:56;;;;;;;10.20;4.47;;;;;;;16.94;74.71;99330.00;5036603;28;20021;-85
2023/05/26 01:54:24;;;;;;;8.88;4.50;;;;;;;16.99;74.07;99323.19;5035707;28;20036;-86
2023/05/26 01:56:51;;;;;;;8.45;4.38;;;;;;;17.13;73.75;99345.19;5024489;28;20046;-85
2023/05/26 01:59:19;;;;;;;5.55;4.70;;;;;;;17.04;73.73;99324.91;5035804;28;20029;-85
2023/05/26 02:01:46;;;;;;;6.80;4.80;;;;;;;16.86;74.13;99328.25;5036991;28;20040;-85
2023/05/26 02:04:12;;;;;;;11.55;4.38;;;;;;;16.81;74.29;99332.22;5035154;28;20052;-84
2023/05/26 02:06:38;;;;;;;15.35;4.95;;;;;;;16.83;73.84;99326.19;5023997;28;20021;-85
2023/05/26 02:09:05;;;;;;;6.22;4.57;;;;;;;16.60;74.93;99332.72;5015968;28;20456;-85
2023/05/26 02:11:32;;;;;;;6.40;4.65;;;;;;;16.42;76.04;99333.25;5015563;28;20056;-84
2023/05/26 02:13:58;;;;;;;5.72;4.20;;;;;;;16.37;76.27;99335.59;5030839;28;20113;-84
2023/05/26 02:16:24;;;;;;;5.78;4.55;;;;;;;15.95;78.10;99331.66;5033766;28;20456;-85
2023/05/26 02:18:49;;;;;;;9.27;5.13;;;;;;;16.05;78.71;99345.13;5015829;28;20026;-84
2023/05/26 02:21:15;;;;;;;5.57;4.75;;;;;;;16.17;77.98;99332.00;5020911;28;20513;-84
2023/05/26 02:23:43;;;;;;;8.75;4.88;;;;;;;16.47;77.08;99343.41;5035556;28;20025;-84
2023/05/26 02:26:09;;;;;;;10.75;4.93;;;;;;;16.48;76.62;99341.41;5034243;28;20025;-85
2023/05/26 02:28:34;;;;;;;7.43;4.65;;;;;;;16.28;76.74;99358.41;5033888;28;20025;-85
2023/05/26 02:31:00;;;;;;;6.68;4.40;;;;;;;15.83;79.30;99344.69;5029525;28;20055;-85
2023/05/26 02:33:26;;;;;;;9.00;4.55;;;;;;;15.65;80.23;99343.53;5015599;28;20556;-85
2023/05/26 02:35:52;;;;;;;8.45;4.35;;;;;;;15.71;80.54;99339.22;5015628;28;20083;-84
2023/05/26 02:38:17;;;;;;;5.85;5.25;;;;;;;15.82;79.55;99331.78;5025629;28;20064;-85
2023/05/26 02:40:43;;;;;;;6.68;4.53;;;;;;;15.93;78.96;99322.75;5025200;28;20055;-85
2023/05/26 02:43:08;;;;;;;11.13;6.57;;;;;;;16.08;78.54;99340.72;5034069;28;20036;-84
2023/05/26 02:45:34;;;;;;;15.82;9.38;;;;;;;16.21;77.93;99341.38;5033329;28;20036;-85
2023/05/26 02:47:59;;;;;;;23.42;11.20;;;;;;;16.31;77.69;99332.28;5033725;28;20542;-85
2023/05/26 02:50:25;;;;;;;19.05;9.48;;;;;;;16.50;76.98;99350.28;5035172;28;20021;-85
2023/05/26 02:52:50;;;;;;;10.13;6.25;;;;;;;16.33;77.25;99349.63;5035268;28;20017;-85
2023/05/26 02:55:16;;;;;;;6.18;4.82;;;;;;;16.05;78.90;99350.78;5031482;28;20025;-87
2023/05/26 02:57:41;;;;;;;9.73;4.90;;;;;;;16.31;77.56;99346.38;5050624;28;20130;-84
2023/05/26 03:00:10;;;;;;;19.65;5.60;;;;;;;16.40;76.78;99340.47;5015205;28;20025;-85
2023/05/26 03:02:36;;;;;;;14.35;7.22;;;;;;;16.54;76.25;99345.53;5032948;28;20063;-85
2023/05/26 03:05:02;;;;;;;12.95;8.25;;;;;;;16.53;76.13;99352.34;5015077;28;20123;-85
2023/05/26 03:07:28;;;;;;;9.48;6.07;;;;;;;16.20;77.37;99354.66;5014634;28;20029;-84
2023/05/26 03:09:53;;;;;;;11.43;4.68;;;;;;;15.99;78.29;99363.53;5017218;28;20021;-84
2023/05/26 03:12:19;;;;;;;10.23;4.88;;;;;;;15.93;78.78;99360.22;5049953;28;20029;-85
2023/05/26 03:14:44;;;;;;;14.32;5.70;;;;;;;16.09;78.23;99356.47;5052512;28;20087;-85
2023/05/26 03:17:10;;;;;;;6.93;4.85;;;;;;;15.84;78.68;99353.97;5034795;28;20028;-84
2023/05/26 03:19:36;;;;;;;10.52;6.28;;;;;;;15.88;78.75;99366.16;5033557;28;20108;-84
2023/05/26 03:22:02;;;;;;;7.15;4.60;;;;;;;15.73;79.99;99365.03;5034575;28;20497;-85
2023/05/26 03:24:27;;;;;;;13.45;5.13;;;;;;;15.80;79.40;99367.97;5032943;28;20025;-85
2023/05/26 03:26:53;;;;;;;13.82;5.55;;;;;;;15.82;79.58;99364.81;5034568;28;20017;-84
2023/05/26 03:29:18;;;;;;;9.00;5.40;;;;;;;15.88;79.00;99370.94;5031822;28;20086;-84
2023/05/26 03:31:44;;;;;;;17.02;5.20;;;;;;;15.86;78.39;99349.59;5014999;28;20528;-84
2023/05/26 03:34:09;;;;;;;20.27;5.25;;;;;;;16.10;77.88;99373.03;5014429;28;20040;-84
2023/05/26 03:36:38;;;;;;;46.97;8.85;;;;;;;15.93;77.78;99373.53;5036459;28;20025;-84
2023/05/26 03:39:05;;;;;;;35.30;8.00;;;;;;;15.68;78.32;99345.59;5050130;28;20032;-84
2023/05/26 03:41:32;;;;;;;12.57;6.05;;;;;;;15.81;77.99;99368.81;5044821;28;20032;-85
2023/05/26 03:43:58;;;;;;;11.43;6.75;;;;;;;15.99;78.10;99367.19;5015137;28;20049;-85
2023/05/26 03:46:23;;;;;;;10.50;5.03;;;;;;;16.11;77.80;99374.66;5017919;28;20022;-84
2023/05/26 03:48:49;;;;;;;21.00;5.35;;;;;;;16.14;77.60;99371.06;5026370;28;20490;-84
2023/05/26 03:51:15;;;;;;;10.02;6.00;;;;;;;16.27;77.33;99387.81;5030225;28;20021;-85
2023/05/26 03:53:41;;;;;;;6.95;5.32;;;;;;;16.21;77.37;99378.03;5014440;28;20033;-84
2023/05/26 03:56:07;;;;;;;12.15;6.25;;;;;;;15.90;78.98;99385.53;5017319;28;20122;-84
2023/05/26 03:58:33;;;;;;;17.50;6.70;;;;;;;16.17;78.05;99382.78;5024460;28;20034;-84
2023/05/26 04:00:58;;;;;;;11.88;5.82;;;;;;;16.25;77.60;99378.91;5026780;28;20067;-84
2023/05/26 04:03:24;;;;;;;20.10;6.07;;;;;;;16.29;77.70;99371.34;5032254;28;20028;-84
2023/05/26 04:05:50;;;;;;;10.75;5.88;;;;;;;16.37;78.01;99384.38;5028718;28;20029;-85
2023/05/26 04:08:15;;;;;;;11.32;6.28;;;;;;;16.37;78.01;99380.75;5017399;28;20017;-85
2023/05/26 04:10:41;;;;;;;10.48;5.80;;;;;;;16.30;78.28;99389.06;5012777;28;20064;-85
2023/05/26 04:13:06;;;;;;;10.82;6.00;;;;;;;16.17;78.43;99363.03;5013952;28;20024;-86
2023/05/26 04:15:32;;;;;;;11.85;6.13;;;;;;;16.32;78.25;99372.56;5013876;28;20025;-84
2023/05/26 04:17:57;;;;;;;12.38;5.43;;;;;;;16.44;78.21;99380.84;5039675;28;20020;-84
2023/05/26 04:20:23;;;;;;;15.27;7.13;;;;;;;16.36;78.16;99382.75;5024244;28;20111;-84
2023/05/26 04:22:49;;;;;;;13.07;5.50;;;;;;;16.32;78.06;99387.53;5020842;28;20021;-84
2023/05/26 04:25:14;;;;;;;16.13;5.45;;;;;;;16.40;78.08;99389.25;5023004;28;20025;-84
2023/05/26 04:27:42;;;;;;;23.38;7.35;;;;;;;15.65;82.79;99397.09;5014090;28;20030;-84
2023/05/26 04:30:08;;;;;;;35.20;6.78;;;;;;;15.69;83.68;99400.81;5032719;28;20028;-83
2023/05/26 04:32:35;;;;;;;8.30;5.55;;;;;;;16.02;81.79;99390.19;5013831;28;20116;-83
2023/05/26 04:35:01;;;;;;;9.70;6.32;;;;;;;16.28;81.40;99389.44;5030967;28;20021;-84
2023/05/26 04:37:26;;;;;;;16.20;6.32;;;;;;;16.36;81.17;99402.50;5022312;28;20039;-83
2023/05/26 04:39:52;;;;;;;9.02;5.38;;;;;;;16.19;80.93;99408.66;5029512;28;20021;-84
2023/05/26 04:42:19;;;;;;;11.30;6.10;;;;;;;16.22;80.79;99397.41;5030478;28;20025;-84
2023/05/26 04:44:45;;;;;;;9.48;6.65;;;;;;;16.24;80.92;99397.88;5025086;28;20082;-84
2023/05/26 04:47:11;;;;;;;13.25;7.00;;;;;;;16.20;81.58;99393.34;5023068;28;20036;-85
2023/05/26 04:49:37;;;;;;;13.23;6.30;;;;;;;16.20;81.77;99388.50;5031627;28;20476;-85
2023/05/26 04:52:03;;;;;;;13.10;6.68;;;;;;;16.25;81.92;99401.50;5051260;28;20025;-85
2023/05/26 04:54:29;;;;;;;12.63;6.72;;;;;;;16.09;83.48;99399.59;5022314;28;20026;-85
2023/05/26 04:56:55;;;;;;;15.77;8.25;;;;;;;15.96;83.95;99395.31;5027804;28;20128;-85
2023/05/26 04:59:24;;;;;;;21.40;7.53;;;;;;;16.07;84.20;99401.16;5042739;28;20137;-85
2023/05/26 05:01:50;;;;;;;13.73;7.03;;;;;;;16.21;84.38;99394.97;5028673;28;20382;-85
2023/05/26 05:04:16;;;;;;;13.40;7.28;;;;;;;16.16;84.44;99392.44;5033212;28;20025;-86
2023/05/26 05:06:42;;;;;;;11.23;6.78;;;;;;;16.16;84.55;99392.44;5031578;28;20115;-86
2023/05/26 05:09:08;;;;;;;8.50;6.78;;;;;;;16.28;83.58;99383.81;5029981;28;20497;-85
2023/05/26 05:11:34;;;;;;;11.00;5.30;;;;;;;16.31;83.29;99388.72;5030796;28;20066;-85
2023/05/26 05:13:59;;;;;;;7.88;5.43;;;;;;;16.14;84.61;99393.63;5026848;28;20020;-86
2023/05/26 05:16:25;;;;;;;8.15;5.97;;;;;;;16.31;84.58;99404.81;5037749;28;20398;-86
2023/05/26 05:18:50;;;;;;;12.10;5.78;;;;;;;16.39;84.19;99398.91;5039288;28;20033;-85
2023/05/26 05:21:16;;;;;;;14.43;6.05;;;;;;;16.53;83.10;99397.53;5055375;28;20021;-85
2023/05/26 05:23:42;;;;;;;10.00;5.53;;;;;;;16.60;82.25;99396.84;5038111;28;20075;-86
2023/05/26 05:26:07;;;;;;;9.10;6.15;;;;;;;16.61;80.13;99392.84;5036786;28;20060;-86
2023/05/26 05:28:33;;;;;;;15.73;6.65;;;;;;;16.66;80.74;99386.84;5052216;28;20516;-86
2023/05/26 05:30:58;;;;;;;11.75;6.70;;;;;;;16.67;79.29;99389.31;5036868;28;20032;-86
2023/05/26 05:33:25;;;;;;;14.23;6.95;;;;;;;16.32;79.83;99379.06;5031723;28;20033;-86
2023/05/26 05:35:50;;;;;;;11.15;6.35;;;;;;;16.56;78.99;99388.31;5027157;28;20473;-85
2023/05/26 05:38:15;;;;;;;9.98;5.65;;;;;;;16.48;78.44;99370.47;5035289;28;20119;-86
2023/05/26 05:40:41;;;;;;;7.10;4.43;;;;;;;16.59;78.21;99390.38;5036016;28;20032;-85
2023/05/26 05:43:06;;;;;;;7.35;5.65;;;;;;;16.74;79.05;99384.97;5031648;28;20076;-86
2023/05/26 05:45:32;;;;;;;23.73;11.75;;;;;;;16.87;78.49;99369.44;5021942;28;20461;-85
2023/05/26 05:47:57;;;;;;;78.75;35.35;;;;;;;17.10;78.19;99386.34;5016423;28;20025;-85
2023/05/26 05:50:23;;;;;;;97.70;44.40;;;;;;;17.11;76.38;99358.91;5036057;28;20504;-84
2023/05/26 05:52:48;;;;;;;90.22;39.97;;;;;;;17.37;75.23;99394.78;5026725;28;20428;-87
2023/05/26 05:55:14;;;;;;;60.95;28.00;;;;;;;17.50;74.66;99377.59;5040676;28;20035;-85
2023/05/26 05:57:39;;;;;;;53.72;23.67;;;;;;;17.74;74.89;99383.94;5045185;28;20476;-85
2023/05/26 06:00:07;;;;;;;37.58;15.27;;;;;;;17.74;74.98;99381.09;5035520;28;20056;-85
2023/05/26 06:02:32;;;;;;;28.83;14.05;;;;;;;17.99;74.67;99387.06;5033175;28;20025;-87
2023/05/26 06:04:58;;;;;;;21.02;9.80;;;;;;;18.13;73.98;99377.13;5032266;28;20036;-85
2023/05/26 06:07:23;;;;;;;20.40;8.35;;;;;;;18.24;74.06;99393.00;5053824;28;20104;-85
2023/05/26 06:09:49;;;;;;;21.67;9.25;;;;;;;18.29;73.74;99383.31;5044286;28;20040;-83
2023/05/26 06:12:14;;;;;;;14.02;9.43;;;;;;;18.51;73.01;99394.84;5034060;28;20068;-85
2023/05/26 06:14:40;;;;;;;27.23;12.75;;;;;;;18.58;72.05;99389.25;5017780;28;20029;-85
2023/05/26 06:17:05;;;;;;;18.23;8.60;;;;;;;18.71;71.21;99395.41;5029370;28;20477;-85
2023/05/26 06:19:31;;;;;;;21.20;7.18;;;;;;;18.71;70.26;99394.63;5047399;28;20033;-85
2023/05/26 06:21:57;;;;;;;10.93;7.38;;;;;;;18.49;71.40;99397.28;5024793;28;20029;-86
2023/05/26 06:24:22;;;;;;;13.10;7.72;;;;;;;18.64;71.19;99403.84;5034596;28;20112;-85
2023/05/26 06:26:48;;;;;;;15.40;8.88;;;;;;;18.12;71.73;99384.78;5029285;28;20091;-86
2023/05/26 06:29:14;;;;;;;16.67;6.05;;;;;;;17.91;73.45;99393.81;5028908;28;20090;-84
2023/05/26 06:31:40;;;;;;;15.23;5.38;;;;;;;17.92;73.68;99392.63;5035369;28;20088;-86
2023/05/26 06:34:05;;;;;;;10.43;5.90;;;;;;;18.27;71.24;99399.91;5032614;28;20029;-86
2023/05/26 06:36:31;;;;;;;11.45;6.32;;;;;;;18.46;70.70;99398.03;5025562;28;20044;-85
2023/05/26 06:38:56;;;;;;;12.55;5.50;;;;;;;18.59;68.54;99412.72;5026250;28;20107;-85
2023/05/26 06:41:22;;;;;;;21.45;5.07;;;;;;;18.48;68.06;99419.09;5016274;28;20030;-86
2023/05/26 06:43:47;;;;;;;15.77;5.32;;;;;;;18.78;68.04;99417.31;5022045;28;20098;-85
2023/05/26 06:46:13;;;;;;;9.93;4.45;;;;;;;18.35;69.39;99393.09;5018359;28;20030;-85
2023/05/26 06:48:38;;;;;;;17.50;5.75;;;;;;;18.65;68.06;99405.50;5036130;28;20458;-84
2023/05/26 06:51:03;;;;;;;9.32;5.00;;;;;;;18.72;67.98;99404.75;5020097;28;20025;-85
2023/05/26 06:53:29;;;;;;;8.10;4.97;;;;;;;18.56;67.25;99400.16;5035622;28;20020;-85
2023/05/26 06:55:55;;;;;;;6.03;4.70;;;;;;;18.82;65.98;99397.53;5034863;28;20029;-85
2023/05/26 06:58:20;;;;;;;5.78;4.28;;;;;;;18.82;65.14;99404.00;5037321;28;20437;-85
2023/05/26 07:00:57;;;;;;;13.65;5.05;;;;;;;18.63;66.17;99405.88;5036032;28;20033;-86
2023/05/26 07:03:23;;;;;;;10.93;4.30;;;;;;;18.60;66.51;99409.50;5017880;28;20075;-84
2023/05/26 07:05:49;;;;;;;11.75;4.68;;;;;;;18.66;66.52;99407.94;5031593;28;20018;-84
2023/05/26 07:08:15;;;;;;;5.55;4.57;;;;;;;18.75;66.03;99412.44;5031596;28;20037;-85
2023/05/26 07:10:40;;;;;;;9.50;4.63;;;;;;;19.02;66.32;99420.78;5033055;28;20033;-85
2023/05/26 07:13:06;;;;;;;15.55;4.65;;;;;;;19.07;65.52;99424.06;5015350;28;20079;-83
2023/05/26 07:15:31;;;;;;;19.10;4.82;;;;;;;19.17;66.42;99421.69;5018755;28;20029;-85
2023/05/26 07:17:57;;;;;;;5.82;4.35;;;;;;;19.21;65.76;99412.00;5022760;28;20025;-84
2023/05/26 07:20:22;;;;;;;18.73;4.38;;;;;;;19.63;63.62;99425.97;5033678;28;20025;-84
2023/05/26 07:22:47;;;;;;;7.43;4.60;;;;;;;19.63;63.84;99429.66;5033996;28;20115;-84
2023/05/26 07:25:13;;;;;;;13.02;5.55;;;;;;;19.75;63.85;99425.63;5031693;28;20056;-83
2023/05/26 07:27:39;;;;;;;12.07;5.20;;;;;;;20.13;64.96;99433.09;5023177;28;20064;-83
2023/05/26 07:30:05;;;;;;;6.53;4.35;;;;;;;20.42;63.05;99430.31;5014678;28;20049;-83
2023/05/26 07:32:30;;;;;;;12.95;5.80;;;;;;;20.22;63.07;99430.69;5034553;28;20039;-84
2023/05/26 07:34:56;;;;;;;12.18;4.78;;;;;;;20.20;64.12;99431.06;5014641;28;20025;-83
2023/05/26 07:37:21;;;;;;;12.00;5.03;;;;;;;20.47;63.61;99433.56;5015899;28;20037;-84
2023/05/26 07:39:47;;;;;;;6.57;3.90;;;;;;;20.24;63.58;99428.25;5030281;28;20156;-84
2023/05/26 07:42:12;;;;;;;5.88;4.10;;;;;;;20.39;63.11;99429.09;5032877;28;20409;-84
2023/05/26 07:44:38;;;;;;;7.60;4.53;;;;;;;20.52;61.76;99431.53;5020356;28;20041;-84
2023/05/26 07:52:36;;;;;;;14.80;5.00;;;;;;;20.87;61.17;99435.66;5063645;28;21244;-72
2023/05/26 07:55:02;;;;;;;8.20;4.25;;;;;;;21.23;61.58;99429.09;5045946;28;20033;-72
2023/05/26 07:57:27;;;;;;;19.95;5.40;;;;;;;21.37;59.59;99423.41;5041879;28;20029;-72
2023/05/26 07:59:53;;;;;;;6.85;4.53;;;;;;;21.44;58.34;99429.03;5045728;28;20025;-69
2023/05/26 08:02:19;;;;;;;9.20;4.50;;;;;;;21.58;58.22;99416.81;5045872;28;20484;-71
2023/05/26 08:04:44;;;;;;;5.75;3.65;;;;;;;21.66;58.31;99423.31;5047283;28;20104;-71
2023/05/26 08:07:10;;;;;;;9.70;4.25;;;;;;;21.88;58.36;99426.09;5048146;28;20037;-71
2023/05/26 08:09:35;;;;;;;9.93;3.55;;;;;;;21.95;57.88;99431.72;5049605;28;20077;-70
2023/05/26 08:12:01;;;;;;;4.50;3.70;;;;;;;21.94;56.81;99426.47;5047197;28;20059;-71
2023/05/26 08:14:26;;;;;;;6.32;4.00;;;;;;;21.89;56.45;99436.25;5047145;28;20033;-70
2023/05/26 08:16:52;;;;;;;9.75;4.30;;;;;;;21.94;56.25;99435.00;5044860;28;20025;-70
2023/05/26 08:19:18;;;;;;;6.53;3.80;;;;;;;22.16;57.20;99436.53;5045788;28;20028;-71
2023/05/26 08:21:43;;;;;;;3.33;3.03;;;;;;;21.99;55.80;99445.94;5044811;28;20018;-70
2023/05/26 08:24:09;;;;;;;5.72;3.53;;;;;;;22.33;56.05;99441.72;5045775;28;20151;-71
2023/05/26 08:26:34;;;;;;;3.78;3.30;;;;;;;22.54;56.92;99441.56;5046457;28;20083;-70
2023/05/26 08:29:00;;;;;;;7.00;3.42;;;;;;;22.69;56.53;99442.28;5044950;28;20032;-71
2023/05/26 08:31:25;;;;;;;5.80;3.83;;;;;;;22.82;55.93;99436.91;5046789;28;20021;-70
2023/05/26 08:33:51;;;;;;;3.58;3.25;;;;;;;22.73;54.47;99442.28;5045298;28;20029;-71
2023/05/26 08:36:16;;;;;;;4.10;3.50;;;;;;;22.93;55.03;99438.84;5046410;28;20032;-71
2023/05/26 08:38:42;;;;;;;6.40;4.00;;;;;;;22.85;55.60;99438.91;5046443;28;20439;-69
2023/05/26 08:41:09;;;;;;;6.85;4.07;;;;;;;22.83;56.32;99440.56;5047685;28;20435;-70
2023/05/26 08:43:45;;;;;;;7.40;4.25;;;;;;;22.88;56.48;99442.16;5047511;28;20025;-73
2023/05/26 08:46:15;;;;;;;9.05;4.55;;;;;;;22.57;58.19;99437.91;5053662;28;20053;-73
2023/05/26 08:48:42;;;;;;;9.00;3.55;;;;;;;22.46;57.88;99445.69;5043911;28;20547;-69
2023/05/26 08:51:09;;;;;;;4.38;3.80;;;;;;;22.39;58.51;99434.34;5045141;28;20046;-70
2023/05/26 08:53:36;;;;;;;8.07;3.88;;;;;;;22.49;58.93;99449.75;5046017;28;20033;-71
2023/05/26 08:56:03;;;;;;;6.07;4.53;;;;;;;22.62;57.43;99447.25;5044968;28;20051;-70
2023/05/26 08:58:31;;;;;;;11.30;3.92;;;;;;;22.64;57.28;99442.75;5046010;28;20059;-73
2023/05/26 09:00:57;;;;;;;8.00;4.80;;;;;;;22.71;55.31;99439.81;5045209;28;20013;-73
2023/05/26 09:03:23;;;;;;;8.48;4.25;;;;;;;22.91;55.10;99427.03;5033544;28;20408;-72
2023/05/26 09:05:48;;;;;;;9.40;4.38;;;;;;;22.95;53.93;99436.38;5033253;28;20022;-73
2023/05/26 09:08:14;;;;;;;11.73;4.38;;;;;;;22.90;54.00;99433.97;5033543;28;20109;-73
2023/05/26 09:10:40;;;;;;;4.75;4.25;;;;;;;23.10;54.48;99429.31;5033799;28;20385;-78
2023/05/26 09:13:10;;;;;;;5.45;4.20;;;;;;;23.35;54.51;99428.28;5033885;28;20029;-75
2023/05/26 09:15:37;;;;;;;10.63;4.82;;;;;;;23.10;53.55;99432.16;5031471;28;20028;-73
2023/05/26 09:18:05;;;;;;;6.80;4.13;;;;;;;23.10;52.35;99425.63;5028233;28;20052;-71
2023/05/26 09:20:31;;;;;;;6.53;4.10;;;;;;;23.24;53.41;99421.84;5030807;28;20445;-70
2023/05/26 09:22:57;;;;;;;8.57;4.00;;;;;;;23.65;50.73;99420.19;5028968;28;20163;-70
2023/05/26 09:25:33;;;;;;;8.07;3.85;;;;;;;24.13;48.77;99414.72;5030792;28;20110;-68
2023/05/26 09:28:03;;;;;;;7.55;3.90;;;;;;;24.41;50.40;99416.34;5030499;28;20024;-68
2023/05/26 09:30:39;;;;;;;10.50;4.28;;;;;;;24.63;49.70;99413.16;5026047;28;20128;-73
2023/05/26 09:33:08;;;;;;;7.55;3.72;;;;;;;24.72;46.00;99410.53;5010824;28;20560;-72
2023/05/26 09:35:47;;;;;;;6.45;3.72;;;;;;;24.57;45.70;99412.00;5011863;28;20447;-73
2023/05/26 09:38:17;;;;;;;15.13;3.60;;;;;;;24.78;46.81;99385.13;5026870;28;20037;-72
2023/05/26 09:40:43;;;;;;;;;;;;;;;24.98;49.30;99393.81;5024804;28;20144;-71
2023/05/26 09:43:09;;;;;;;8.70;4.70;;;;;;;25.06;47.18;99406.72;5008400;28;19996;-72
2023/05/26 09:45:36;;;;;;;5.50;3.63;;;;;;;25.02;48.63;99397.41;5030472;28;20044;-72
2023/05/26 09:48:06;;;;;;;10.23;4.25;;;;;;;24.93;48.58;99395.09;5030741;28;20453;-72
2023/05/26 09:50:34;;;;;;;5.75;4.18;;;;;;;24.96;47.63;99401.97;5030331;28;20045;-70
2023/05/26 09:53:02;;;;;;;7.55;3.17;;;;;;;24.90;45.77;99392.31;5027888;28;20060;-72
2023/05/26 09:55:28;;;;;;;10.13;3.30;;;;;;;24.91;45.43;99394.72;5023134;28;20029;-73
2023/05/26 09:57:54;;;;;;;7.47;3.42;;;;;;;24.72;45.67;99386.88;5026138;28;20033;-71
2023/05/26 10:00:21;;;;;;;6.38;2.83;;;;;;;24.87;43.03;99381.75;5029341;28;20030;-71
2023/05/26 10:02:47;;;;;;;3.65;2.45;;;;;;;25.10;40.22;99389.47;5032933;28;20064;-72
2023/05/26 10:05:14;;;;;;;3.83;2.63;;;;;;;25.30;40.58;99369.47;5031356;28;20044;-72
2023/05/26 10:07:41;;;;;;;3.70;2.75;;;;;;;25.44;41.89;99376.16;5032946;28;20083;-72
2023/05/26 10:10:11;;;;;;;3.53;2.42;;;;;;;25.37;41.42;99372.19;5046288;28;20139;-72
2023/05/26 10:12:36;;;;;;;5.25;2.92;;;;;;;25.51;40.50;99373.19;5039905;28;20029;-71
2023/05/26 10:15:04;;;;;;;5.43;2.85;;;;;;;25.72;40.49;99371.13;5031471;28;20056;-72
2023/05/26 10:17:30;;;;;;;2.92;2.17;;;;;;;25.85;39.61;99363.47;5030192;28;20057;-72
2023/05/26 10:19:57;;;;;;;18.05;3.40;;;;;;;26.12;40.13;99364.50;5030045;28;20408;-71
2023/05/26 10:22:48;;;;;;;4.30;2.28;;;;;;;26.11;37.56;99360.00;5012695;28;20030;-69
2023/05/26 10:25:46;;;;;;;1.85;1.75;;;;;;;26.34;38.74;99357.03;5016462;28;20034;-72
2023/05/26 10:28:49;;;;;;;3.70;2.10;;;;;;;25.84;37.00;99361.84;5030826;28;20033;-72
2023/05/26 10:31:36;;;;;;;3.35;2.33;;;;;;;26.13;37.74;99344.00;5026796;28;20147;-71
2023/05/26 10:34:31;;;;;;;2.40;2.20;;;;;;;26.38;37.81;99342.63;5031497;28;20221;-72
2023/05/26 10:37:01;;;;;;;4.30;2.22;;;;;;;26.07;35.48;99337.19;5024800;28;20038;-71
2023/05/26 10:39:27;;;;;;;;;;;;;;;25.83;36.75;99333.66;5022385;28;20534;-72
2023/05/26 10:41:53;;;;;;;2.97;2.20;;;;;;;25.94;36.07;99334.22;5025038;28;19959;-72
2023/05/26 10:44:56;;;;;;;3.28;2.30;;;;;;;26.35;38.20;99329.19;5030179;28;20451;-71
2023/05/26 10:47:28;;;;;;;2.13;1.90;;;;;;;26.37;36.02;99329.53;5025599;28;20121;-71
2023/05/26 10:49:58;;;;;;;5.88;2.63;;;;;;;26.18;36.94;99317.69;5027280;28;20056;-72
2023/05/26 10:52:25;;;;;;;3.10;2.40;;;;;;;26.38;36.86;99324.63;5030255;28;20042;-71
2023/05/26 10:54:51;;;;;;;8.50;2.53;;;;;;;26.88;35.92;99323.34;5031484;28;20025;-71
2023/05/26 10:57:34;;;;;;;5.45;2.03;;;;;;;27.23;33.90;99319.91;5028852;28;20091;-71
2023/05/26 11:00:24;;;;;;;2.63;2.20;;;;;;;27.10;32.98;99310.47;5020210;28;20026;-71
2023/05/26 11:02:50;;;;;;;2.67;1.70;;;;;;;26.90;32.90;99305.66;5030064;28;20032;-72
2023/05/26 11:05:30;;;;;;;2.55;2.10;;;;;;;27.05;32.46;99292.53;5027764;28;20041;-71
2023/05/26 11:07:55;;;;;;;7.55;2.28;;;;;;;26.69;32.94;99293.50;5031499;28;20021;-71
2023/05/26 11:10:21;;;;;;;2.75;1.77;;;;;;;27.12;33.10;99291.53;5030695;28;20033;-71
2023/05/26 11:12:57;;;;;;;3.95;2.17;;;;;;;27.30;32.97;99282.41;5031017;28;20036;-71
2023/05/26 11:15:31;;;;;;;2.90;2.15;;;;;;;27.45;31.94;99285.66;5029794;28;20091;-71
2023/05/26 11:18:05;;;;;;;3.78;2.17;;;;;;;26.88;32.87;99282.34;5030029;28;20515;-71
2023/05/26 11:20:34;;;;;;;6.97;2.63;;;;;;;26.74;34.27;99266.34;5028395;28;20555;-71
2023/05/26 11:22:59;;;;;;;4.15;2.47;;;;;;;26.98;35.44;99269.00;5030055;28;20022;-71
2023/05/26 11:25:28;;;;;;;4.88;2.65;;;;;;;27.09;33.29;99263.75;5029579;28;20631;-71
2023/05/26 11:27:53;;;;;;;5.50;2.67;;;;;;;26.15;34.80;99260.47;5028951;28;20086;-71
2023/05/26 11:30:19;;;;;;;3.40;2.15;;;;;;;27.15;34.08;99250.44;5030780;28;20406;-72
2023/05/26 11:32:50;;;;;;;7.65;2.25;;;;;;;27.52;33.53;99255.91;5031075;28;20049;-71
2023/05/26 11:35:28;;;;;;;3.10;2.17;;;;;;;27.78;33.56;99246.53;5038249;28;20026;-71
2023/05/26 11:37:55;;;;;;;2.92;2.17;;;;;;;27.88;33.67;99242.50;5027982;28;20083;-73
2023/05/26 11:40:20;;;;;;;4.72;2.10;;;;;;;27.42;33.41;99251.31;5022414;28;20036;-73